Time;durP1;ratioP1;P1;durP2;ratioP2;P2;SDS_P1;SDS_P2;PMS_P1;PMS_P2;Temp;Humidity;BMP_temperature;BMP_pressure;BME280_temperature;BME280_humidity;BME280_pressure;Samples;Min_cycle;Max_cycle;Signal;HPM_P1;HPM_P2
2022/04/06 00:02:28;;;;;;;5.13;4.73;;;13.10;37.80;;;;;;10375031;28;20233;-75
2022/04/06 00:07:33;;;;;;;5.10;4.70;;;13.10;37.80;;;;;;10379167;28;20890;-76
2022/04/06 00:12:36;;;;;;;4.97;4.57;;;13.10;37.90;;;;;;10383227;28;20716;-75
2022/04/06 00:17:40;;;;;;;5.33;4.83;;;13.10;37.90;;;;;;10388752;28;20226;-75
2022/04/06 00:22:45;;;;;;;4.70;4.30;;;13.10;38.00;;;;;;10394182;28;20230;-75
2022/04/06 00:27:48;;;;;;;5.27;4.87;;;13.10;38.10;;;;;;10385634;28;20725;-75
2022/04/06 00:32:51;;;;;;;5.03;4.63;;;13.10;37.90;;;;;;10385626;28;20230;-75
2022/04/06 00:37:56;;;;;;;5.60;5.20;;;13.00;38.00;;;;;;10386151;28;20230;-75
2022/04/06 00:42:59;;;;;;;5.93;5.43;;;13.10;38.10;;;;;;10394261;28;20226;-75
2022/04/06 00:48:03;;;;;;;5.40;5.00;;;13.10;38.00;;;;;;10388523;28;20236;-75
2022/04/06 00:53:08;;;;;;;5.00;4.60;;;13.10;38.00;;;;;;10392369;28;20226;-75
2022/04/06 00:58:11;;;;;;;5.40;5.00;;;13.00;38.10;;;;;;10387411;28;20236;-75
2022/04/06 01:03:14;;;;;;;5.30;4.80;;;13.00;38.00;;;;;;10388469;28;20237;-75
2022/04/06 01:08:18;;;;;;;4.67;4.27;;;13.00;37.90;;;;;;10387604;28;20574;-75
2022/04/06 01:13:22;;;;;;;5.50;4.60;;;13.00;38.30;;;;;;10386597;28;20238;-75
2022/04/06 01:18:26;;;;;;;4.77;4.33;;;12.90;38.10;;;;;;10383027;28;20226;-75
2022/04/06 01:23:30;;;;;;;4.83;4.43;;;12.80;38.30;;;;;;10385237;28;20235;-75
2022/04/06 01:28:34;;;;;;;4.30;4.00;;;12.80;38.50;;;;;;10389531;28;20246;-75
2022/04/06 01:33:37;;;;;;;4.87;4.43;;;12.80;38.40;;;;;;10389165;28;20237;-75
2022/04/06 01:38:42;;;;;;;4.40;4.00;;;12.80;38.50;;;;;;10390424;28;20274;-75
2022/04/06 01:43:45;;;;;;;4.03;3.73;;;12.80;38.60;;;;;;10395410;28;20240;-75
2022/04/06 01:54:06;;;;;;;4.33;4.03;;;12.80;38.40;;;;;;10385516;28;20241;-75
2022/04/06 01:59:10;;;;;;;4.10;3.80;;;12.90;39.30;;;;;;10378100;28;20234;-75
2022/04/06 02:04:16;;;;;;;4.50;3.70;;;12.90;38.40;;;;;;10382791;28;20230;-75
2022/04/06 02:09:21;;;;;;;3.80;3.50;;;12.90;38.70;;;;;;10385747;28;20226;-76
2022/04/06 02:14:24;;;;;;;4.03;3.73;;;12.90;38.60;;;;;;10382836;28;20235;-74
2022/04/06 02:19:27;;;;;;;3.80;3.50;;;12.90;38.50;;;;;;10381893;28;20226;-74
2022/04/06 02:24:32;;;;;;;3.70;3.40;;;12.90;38.60;;;;;;10387439;28;20226;-76
2022/04/06 02:29:38;;;;;;;3.70;3.40;;;12.90;38.70;;;;;;10382398;28;20233;-75
2022/04/06 02:34:41;;;;;;;3.63;3.33;;;12.90;38.70;;;;;;10379693;28;20722;-74
2022/04/06 02:39:46;;;;;;;3.70;3.40;;;12.90;38.70;;;;;;10386506;28;20602;-75
2022/04/06 02:44:49;;;;;;;4.80;3.60;;;12.90;38.80;;;;;;10385599;28;20745;-76
2022/04/06 02:49:52;;;;;;;3.47;3.17;;;13.00;38.80;;;;;;10382408;28;20229;-75
2022/04/06 02:54:57;;;;;;;4.33;4.00;;;13.00;38.70;;;;;;10383890;28;20222;-75
2022/04/06 03:00:00;;;;;;;3.90;3.57;;;13.00;38.80;;;;;;10386723;28;20241;-75
2022/04/06 03:05:03;;;;;;;4.83;4.17;;;13.00;38.60;;;;;;10382348;28;20228;-75
2022/04/06 03:10:08;;;;;;;5.50;5.10;;;13.00;38.60;;;;;;10385861;28;20709;-75
2022/04/06 03:15:12;;;;;;;3.70;3.40;;;13.00;38.80;;;;;;10380397;28;20338;-75
2022/04/06 03:20:15;;;;;;;3.73;3.43;;;13.00;38.60;;;;;;10380823;28;20221;-76
2022/04/06 03:25:20;;;;;;;3.70;3.40;;;13.00;38.60;;;;;;10380891;28;20222;-76
2022/04/06 03:30:23;;;;;;;3.63;3.33;;;13.00;38.70;;;;;;10382779;28;20229;-75
2022/04/06 03:35:26;;;;;;;3.80;3.20;;;13.00;38.70;;;;;;10387201;28;20221;-76
2022/04/06 03:40:35;;;;;;;3.23;3.03;;;13.00;38.80;;;;;;10373473;28;20222;-75
2022/04/06 03:45:38;;;;;;;3.60;3.30;;;12.90;39.00;;;;;;10381553;28;20225;-75
2022/04/06 03:50:42;;;;;;;3.13;2.93;;;12.90;38.90;;;;;;10373480;28;20584;-75
2022/04/06 03:55:47;;;;;;;3.80;3.50;;;12.90;38.90;;;;;;10393313;28;20669;-75
2022/04/06 04:00:50;;;;;;;3.20;3.00;;;12.90;39.00;;;;;;10395941;28;20218;-76
2022/04/06 04:05:53;;;;;;;4.10;3.63;;;12.90;39.00;;;;;;10385054;28;20233;-75
2022/04/06 04:10:58;;;;;;;5.00;4.60;;;12.90;38.90;;;;;;10392906;28;20279;-75
2022/04/06 04:16:02;;;;;;;4.60;4.27;;;12.90;39.10;;;;;;10385649;28;20230;-75
2022/04/06 04:26:27;;;;;;;6.17;5.67;;;12.90;38.90;;;;;;10391272;28;20245;-75
2022/04/06 04:31:30;;;;;;;6.00;5.50;;;12.90;39.00;;;;;;10396766;28;20226;-75
2022/04/06 04:36:33;;;;;;;6.10;5.60;;;12.90;38.90;;;;;;10391667;28;20222;-75
2022/04/06 04:41:39;;;;;;;10.30;9.30;;;12.90;38.90;;;;;;10395292;28;20230;-75
2022/04/06 04:46:44;;;;;;;6.97;6.37;;;12.90;39.20;;;;;;10392220;28;20312;-75
2022/04/06 04:51:47;;;;;;;6.30;5.80;;;12.80;39.10;;;;;;10381011;28;20230;-75
2022/04/06 04:56:52;;;;;;;6.93;6.33;;;12.90;39.10;;;;;;10375831;28;20230;-75
2022/04/06 05:01:55;;;;;;;5.63;5.10;;;12.80;39.20;;;;;;10391401;28;20226;-75
2022/04/06 05:06:58;;;;;;;8.57;7.77;;;12.90;39.10;;;;;;10392441;28;20236;-75
2022/04/06 05:12:03;;;;;;;5.23;4.60;;;12.90;39.00;;;;;;10384069;28;20318;-75
2022/04/06 05:17:07;;;;;;;4.77;4.37;;;12.90;39.40;;;;;;10383776;28;20226;-75
2022/04/06 05:22:10;;;;;;;4.67;4.27;;;12.80;39.20;;;;;;10375973;28;20248;-76
2022/04/06 05:27:15;;;;;;;5.10;4.70;;;12.80;39.40;;;;;;10384826;28;20590;-75
2022/04/06 05:32:18;;;;;;;4.63;4.33;;;12.80;39.70;;;;;;10374827;28;20225;-75
2022/04/06 05:37:21;;;;;;;4.10;3.80;;;12.80;39.50;;;;;;10399199;28;20238;-74
2022/04/06 05:42:26;;;;;;;3.57;3.37;;;12.80;39.60;;;;;;10408973;28;20287;-74
2022/04/06 05:47:29;;;;;;;4.93;4.20;;;12.80;39.80;;;;;;10408678;28;20759;-75
2022/04/06 05:52:32;;;;;;;9.00;8.20;;;12.80;39.70;;;;;;10407724;28;20229;-76
2022/04/06 05:57:37;;;;;;;8.90;8.10;;;12.90;39.60;;;;;;10383750;28;20725;-75
2022/04/06 06:02:42;;;;;;;5.20;4.80;;;12.90;39.70;;;;;;10379530;28;20236;-76
2022/04/06 06:07:45;;;;;;;5.00;4.60;;;12.90;39.60;;;;;;10388321;28;20232;-76
2022/04/06 06:12:50;;;;;;;4.13;3.83;;;12.90;39.60;;;;;;10384720;28;20225;-76
2022/04/06 06:17:54;;;;;;;4.10;3.80;;;12.90;39.70;;;;;;10391952;28;20230;-76
2022/04/06 06:22:57;;;;;;;4.10;3.80;;;13.00;39.60;;;;;;10407334;28;20229;-75
2022/04/06 06:28:01;;;;;;;4.57;3.73;;;13.00;39.60;;;;;;10386730;28;20934;-77
2022/04/06 06:33:05;;;;;;;4.03;3.73;;;13.10;39.80;;;;;;10376160;28;20221;-81
2022/04/06 06:38:08;;;;;;;4.50;4.10;;;13.20;39.80;;;;;;10392031;28;20233;-81
2022/04/06 06:43:12;;;;;;;5.20;4.63;;;13.20;39.90;;;;;;10391033;28;20235;-81
2022/04/06 06:48:16;;;;;;;4.37;3.97;;;13.30;40.00;;;;;;10393724;28;20235;-80
2022/04/06 06:53:19;;;;;;;4.60;4.23;;;13.40;39.90;;;;;;10390428;28;20230;-80
2022/04/06 06:58:24;;;;;;;3.97;3.57;;;13.50;39.90;;;;;;10394239;28;20230;-80
2022/04/06 07:03:27;;;;;;;3.97;3.67;;;13.60;39.80;;;;;;10399378;28;20312;-80
2022/04/06 07:08:31;;;;;;;3.43;3.23;;;13.60;39.70;;;;;;10394233;28;20257;-77
2022/04/06 07:13:36;;;;;;;3.30;3.10;;;13.70;39.70;;;;;;10388389;28;20223;-77
2022/04/06 07:18:39;;;;;;;3.70;3.40;;;13.80;39.70;;;;;;10393130;28;20245;-75
2022/04/06 07:23:44;;;;;;;3.63;3.33;;;13.90;39.60;;;;;;10412115;28;20233;-75
2022/04/06 07:28:48;;;;;;;3.60;3.37;;;14.00;39.50;;;;;;10414562;28;20229;-75
2022/04/06 07:33:51;;;;;;;3.73;3.43;;;14.00;39.60;;;;;;10407319;28;20228;-79
2022/04/06 07:38:54;;;;;;;3.57;3.37;;;14.10;39.70;;;;;;10411952;28;20293;-75
2022/04/06 07:44:00;;;;;;;3.50;3.30;;;14.20;39.70;;;;;;10406480;28;20230;-76
2022/04/06 07:49:06;;;;;;;3.53;3.23;;;14.30;39.60;;;;;;10396213;28;20724;-76
2022/04/06 07:54:09;;;;;;;4.00;3.60;;;14.50;39.60;;;;;;10420654;28;20225;-76
2022/04/06 07:59:13;;;;;;;2.57;2.43;;;14.60;39.40;;;;;;10413008;28;20244;-76
2022/04/06 08:04:17;;;;;;;3.57;3.27;;;14.70;38.80;;;;;;10404083;28;20237;-76
2022/04/06 08:09:20;;;;;;;3.47;3.17;;;14.80;39.80;;;;;;10433518;28;20241;-77
2022/04/06 08:14:24;;;;;;;3.13;2.83;;;14.90;39.00;;;;;;10393250;28;20230;-76
2022/04/06 08:19:28;;;;;;;3.00;2.80;;;15.00;38.70;;;;;;10398897;28;20221;-76
2022/04/06 08:24:31;;;;;;;2.27;2.17;;;15.10;38.70;;;;;;10406284;28;20238;-76
2022/04/06 08:29:35;;;;;;;2.87;2.60;;;15.20;38.50;;;;;;10391236;28;20230;-76
2022/04/06 08:34:39;;;;;;;2.80;2.00;;;15.40;38.20;;;;;;10391370;28;20237;-77
2022/04/06 08:39:42;;;;;;;2.60;2.40;;;15.50;37.80;;;;;;10408348;28;20718;-74
2022/04/06 08:45:09;;;;;;;2.60;2.40;;;15.50;37.70;;;;;;10403363;28;20245;-76
2022/04/06 08:50:12;;;;;;;1.87;1.73;;;15.60;37.50;;;;;;10397301;28;20234;-77
2022/04/06 08:55:15;;;;;;;1.70;1.60;;;15.70;37.70;;;;;;10396921;28;20249;-77
2022/04/06 09:00:20;;;;;;;2.10;1.90;;;15.80;37.10;;;;;;10395029;28;20318;-77
2022/04/06 09:05:26;;;;;;;1.90;1.80;;;15.80;36.60;;;;;;10393905;28;20726;-77
2022/04/06 09:10:32;;;;;;;1.70;1.60;;;15.80;37.00;;;;;;10392762;28;20220;-75
2022/04/06 09:15:37;;;;;;;2.27;1.80;;;15.90;37.10;;;;;;10451050;28;20709;-76
2022/04/06 09:20:41;;;;;;;1.97;1.87;;;16.00;36.60;;;;;;10421448;28;20238;-76
2022/04/06 09:25:46;;;;;;;2.20;2.00;;;16.00;36.80;;;;;;10409483;28;20325;-76
2022/04/06 09:30:51;;;;;;;1.97;1.70;;;16.00;36.90;;;;;;10425805;28;20241;-76
2022/04/06 09:35:55;;;;;;;1.60;1.50;;;16.00;36.30;;;;;;10395575;28;20226;-77
2022/04/06 09:41:03;;;;;;;1.60;1.50;;;16.10;36.90;;;;;;10417315;28;20646;-77
2022/04/06 09:51:48;;;;;;;1.70;1.60;;;16.30;36.30;;;;;;10421512;28;20229;-77
2022/04/06 09:56:55;;;;;;;1.40;1.40;;;16.50;36.80;;;;;;10410179;28;20308;-77
2022/04/06 10:02:00;;;;;;;1.37;1.37;;;16.50;36.10;;;;;;10392743;28;20226;-76
2022/04/06 10:07:06;;;;;;;1.77;1.67;;;16.70;36.50;;;;;;10374443;28;20606;-77
2022/04/06 10:12:11;;;;;;;1.77;1.60;;;16.80;35.90;;;;;;10415974;28;20744;-77
2022/04/06 10:17:17;;;;;;;1.80;1.70;;;16.80;35.70;;;;;;10376337;28;20234;-77
2022/04/06 10:22:26;;;;;;;1.60;1.50;;;16.80;35.40;;;;;;10406958;28;20229;-76
2022/04/06 10:27:31;;;;;;;1.53;1.43;;;16.80;35.80;;;;;;10448674;28;20690;-77
2022/04/06 10:32:36;;;;;;;1.90;1.80;;;16.80;36.00;;;;;;10434070;28;20220;-77
2022/04/06 10:37:49;;;;;;;1.93;1.77;;;16.90;35.70;;;;;;10431590;28;20614;-78
2022/04/06 10:42:53;;;;;;;2.03;1.93;;;17.00;35.40;;;;;;10372769;28;20651;-76
2022/04/06 10:48:15;;;;;;;1.80;1.70;;;17.10;35.90;;;;;;10381271;28;20245;-75
2022/04/06 10:53:29;;;;;;;1.80;1.70;;;17.30;35.60;;;;;;10374100;28;20217;-77
2022/04/06 10:59:10;;;;;;;1.80;1.70;;;17.60;34.40;;;;;;10377058;28;20321;-76
2022/04/06 11:04:20;;;;;;;1.70;1.60;;;17.70;35.20;;;;;;10204798;28;20248;-77
2022/04/06 11:14:48;;;;;;;1.60;1.50;;;18.10;34.80;;;;;;10362069;28;20716;-76
2022/04/06 11:19:53;;;;;;;1.60;1.50;;;18.30;35.00;;;;;;10376594;28;20233;-76
2022/04/06 11:24:57;;;;;;;2.00;1.90;;;18.40;34.20;;;;;;10381743;28;20236;-78
2022/04/06 11:30:01;;;;;;;2.00;1.90;;;18.40;34.60;;;;;;10370219;28;20234;-77
2022/04/06 11:35:08;;;;;;;2.00;1.90;;;18.40;34.00;;;;;;10363183;28;20740;-76
2022/04/06 11:40:12;;;;;;;2.60;2.40;;;18.30;33.60;;;;;;10366958;28;20236;-75
2022/04/06 11:45:20;;;;;;;2.47;2.30;;;18.20;33.80;;;;;;10384051;28;20233;-76
2022/04/06 11:50:29;;;;;;;2.97;2.63;;;18.10;33.30;;;;;;10395703;28;20226;-75
2022/04/06 11:55:47;;;;;;;2.63;2.43;;;18.00;33.60;;;;;;10386330;28;20217;-75
2022/04/06 12:00:59;;;;;;;2.40;2.30;;;18.00;33.80;;;;;;10375809;28;20987;-76
2022/04/06 12:06:05;;;;;;;2.10;2.00;;;18.00;34.00;;;;;;10392426;28;20238;-73
2022/04/06 12:11:09;;;;;;;2.60;2.40;;;18.10;34.80;;;;;;10389176;28;20226;-75
2022/04/06 12:16:13;;;;;;;2.90;2.53;;;18.20;34.90;;;;;;10356731;28;20279;-76
2022/04/06 12:21:23;;;;;;;2.60;2.40;;;18.30;35.00;;;;;;10366502;28;20305;-75
2022/04/06 12:26:38;;;;;;;2.50;2.40;;;18.50;33.80;;;;;;10374142;28;20226;-76
2022/04/06 12:31:42;;;;;;;2.37;2.20;;;18.40;34.40;;;;;;10373262;28;21082;-74
2022/04/06 12:36:51;;;;;;;2.10;2.00;;;18.60;34.30;;;;;;10403631;28;20648;-76
2022/04/06 12:42:01;;;;;;;2.33;2.10;;;18.60;33.50;;;;;;10423808;28;20225;-75
2022/04/06 12:47:19;;;;;;;1.83;1.73;;;18.80;33.60;;;;;;10389765;28;20230;-74
2022/04/06 12:52:25;;;;;;;1.90;1.80;;;18.90;34.00;;;;;;10392641;28;20260;-76
2022/04/06 12:57:31;;;;;;;1.80;1.70;;;18.90;33.30;;;;;;10393586;28;20226;-77
2022/04/06 13:02:35;;;;;;;2.30;2.20;;;19.10;32.90;;;;;;10411795;28;20252;-76
2022/04/06 13:07:41;;;;;;;2.00;1.90;;;19.10;33.40;;;;;;10402223;28;20287;-74
2022/04/06 13:12:46;;;;;;;1.60;1.50;;;19.30;32.50;;;;;;10384846;28;20268;-75
2022/04/06 13:17:50;;;;;;;1.67;1.57;;;19.30;32.80;;;;;;10392853;28;20234;-75
2022/04/06 13:22:55;;;;;;;1.60;1.50;;;19.30;32.50;;;;;;10390941;28;20236;-75
2022/04/06 13:28:19;;;;;;;1.70;1.60;;;19.30;32.30;;;;;;10386413;28;20234;-75
2022/04/06 13:33:22;;;;;;;1.77;1.40;;;19.30;32.30;;;;;;10386751;28;20730;-75
2022/04/06 13:38:28;;;;;;;1.57;1.47;;;19.40;32.50;;;;;;10380933;28;20282;-75
2022/04/06 13:43:31;;;;;;;1.10;1.10;;;19.40;31.60;;;;;;10385951;28;20214;-75
2022/04/06 13:48:35;;;;;;;1.13;1.13;;;19.40;32.00;;;;;;10388805;28;20225;-76
2022/04/06 13:53:39;;;;;;;1.50;1.40;;;19.40;31.90;;;;;;10388429;28;20237;-76
2022/04/06 13:58:43;;;;;;;1.13;1.13;;;19.40;31.20;;;;;;10385584;28;20244;-75
2022/04/06 14:03:46;;;;;;;1.30;1.20;;;19.40;31.90;;;;;;10393502;28;20226;-79
2022/04/06 14:08:50;;;;;;;1.00;1.00;;;19.40;31.50;;;;;;10402227;28;20226;-80
2022/04/06 14:13:55;;;;;;;1.20;1.00;;;19.40;31.20;;;;;;10391400;28;20229;-79
2022/04/06 14:18:59;;;;;;;1.00;1.00;;;19.40;31.20;;;;;;10406515;28;20235;-73
2022/04/06 14:24:05;;;;;;;1.07;0.93;;;19.40;31.00;;;;;;10402013;28;20219;-77
2022/04/06 14:29:10;;;;;;;1.20;1.10;;;19.40;30.50;;;;;;10389568;28;20252;-77
2022/04/06 14:34:13;;;;;;;0.93;0.93;;;19.50;31.10;;;;;;10391210;28;20301;-78
2022/04/06 14:39:19;;;;;;;1.57;1.00;;;19.50;31.00;;;;;;10380007;28;20304;-77
2022/04/06 14:44:25;;;;;;;1.57;1.47;;;19.60;30.40;;;;;;10388373;28;20229;-81
2022/04/06 14:49:29;;;;;;;7.57;5.43;;;19.70;30.00;;;;;;10395634;28;20230;-82
2022/04/06 14:54:34;;;;;;;5.67;4.43;;;19.80;30.00;;;;;;10395066;28;20227;-82
2022/04/06 14:59:37;;;;;;;5.53;4.03;;;19.80;29.60;;;;;;10393137;28;20256;-82
2022/04/06 15:04:42;;;;;;;2.07;1.80;;;19.70;30.00;;;;;;10393929;28;20232;-81
2022/04/06 15:09:46;;;;;;;1.10;1.10;;;19.70;29.90;;;;;;10399869;28;20726;-82
2022/04/06 15:14:50;;;;;;;1.20;1.20;;;19.70;29.80;;;;;;10398699;28;20304;-82
2022/04/06 15:19:53;;;;;;;1.30;1.20;;;19.80;30.00;;;;;;10404109;28;20240;-82
2022/04/06 15:25:01;;;;;;;2.53;2.33;;;19.80;29.60;;;;;;10395922;28;20222;-82
2022/04/06 15:30:05;;;;;;;1.40;1.30;;;19.80;29.50;;;;;;10395186;28;20229;-81
2022/04/06 15:40:31;;;;;;;0.90;0.90;;;19.80;29.60;;;;;;10396153;28;20221;-82
2022/04/06 15:45:34;;;;;;;1.10;1.10;;;19.80;29.40;;;;;;10397120;28;20230;-81
2022/04/06 15:50:38;;;;;;;1.27;1.00;;;19.90;29.60;;;;;;10407229;28;20222;-82
2022/04/06 15:55:43;;;;;;;1.13;1.07;;;19.90;29.20;;;;;;10399067;28;20222;-82
2022/04/06 16:00:49;;;;;;;1.07;1.07;;;19.80;28.80;;;;;;10402945;28;20653;-82
2022/04/06 16:05:53;;;;;;;1.10;1.00;;;19.80;29.30;;;;;;10404300;28;20237;-82
2022/04/06 16:10:57;;;;;;;1.83;1.73;;;19.80;29.40;;;;;;10402801;28;20222;-82
2022/04/06 16:16:01;;;;;;;1.27;1.20;;;19.80;28.90;;;;;;10405778;28;20226;-82
2022/04/06 16:21:04;;;;;;;1.90;1.80;;;19.80;29.30;;;;;;10402722;28;20261;-82
2022/04/06 16:26:10;;;;;;;2.10;1.60;;;19.70;29.10;;;;;;10387333;28;20315;-79
2022/04/06 16:31:14;;;;;;;1.30;1.20;;;19.70;28.80;;;;;;10392799;28;20229;-78
2022/04/06 16:36:17;;;;;;;1.50;1.40;;;19.70;29.20;;;;;;10391560;28;20258;-78
2022/04/06 16:41:22;;;;;;;1.93;1.70;;;19.60;29.00;;;;;;10393584;28;20260;-78
2022/04/06 16:46:29;;;;;;;2.40;2.10;;;19.60;28.70;;;;;;10387641;28;20226;-77
2022/04/06 16:56:58;;;;;;;2.63;2.43;;;19.50;29.00;;;;;;10387958;28;20233;-77
2022/04/06 17:02:02;;;;;;;4.93;4.63;;;19.40;28.80;;;;;;10384651;28;20221;-77
2022/04/06 17:07:05;;;;;;;4.90;4.60;;;19.40;29.30;;;;;;10387458;28;20233;-77
2022/04/06 17:12:10;;;;;;;8.23;7.53;;;19.40;29.40;;;;;;10381964;28;20230;-77
2022/04/06 17:17:15;;;;;;;5.70;5.30;;;19.40;29.20;;;;;;10382367;28;20226;-77
2022/04/06 17:22:20;;;;;;;4.07;3.77;;;19.30;29.20;;;;;;10386276;28;20235;-77
2022/04/06 17:27:24;;;;;;;4.67;3.30;;;19.30;29.30;;;;;;10384992;28;20237;-77
2022/04/06 17:32:27;;;;;;;3.53;3.20;;;19.30;29.20;;;;;;10388237;28;20595;-78
2022/04/06 17:37:33;;;;;;;3.30;3.00;;;19.30;29.30;;;;;;10390603;28;20226;-78
2022/04/06 17:42:37;;;;;;;4.43;3.90;;;19.30;29.50;;;;;;10387985;28;20222;-78
2022/04/06 17:47:40;;;;;;;3.50;3.20;;;19.30;29.20;;;;;;10391967;28;20228;-78
2022/04/06 17:52:43;;;;;;;1.80;1.70;;;19.30;29.40;;;;;;10391080;28;20244;-78
2022/04/06 17:57:48;;;;;;;1.60;1.50;;;19.20;29.30;;;;;;10395962;28;20226;-78
2022/04/06 18:02:52;;;;;;;2.23;1.50;;;19.10;29.30;;;;;;10386810;28;20224;-78
2022/04/06 18:07:55;;;;;;;1.20;1.13;;;19.10;29.40;;;;;;10383885;28;20225;-78
2022/04/06 18:18:20;;;;;;;1.90;1.80;;;19.00;29.50;;;;;;10397115;28;20228;-79
2022/04/06 18:23:23;;;;;;;9.23;8.33;;;18.90;29.50;;;;;;10391492;28;20710;-78
2022/04/06 18:28:27;;;;;;;14.23;12.83;;;18.90;29.60;;;;;;10393964;28;20226;-78
2022/04/06 18:33:31;;;;;;;18.00;16.30;;;18.80;29.70;;;;;;10390832;28;20217;-78
2022/04/06 18:38:36;;;;;;;17.60;15.90;;;18.70;29.70;;;;;;10395401;28;20633;-79
2022/04/06 18:43:41;;;;;;;10.60;9.60;;;18.60;29.70;;;;;;10398784;28;20707;-79
2022/04/06 18:48:44;;;;;;;5.53;5.03;;;18.50;29.80;;;;;;10392747;28;20595;-76
2022/04/06 18:53:48;;;;;;;3.93;3.63;;;18.50;29.70;;;;;;10389339;28;20233;-79
2022/04/06 18:58:52;;;;;;;4.70;4.20;;;18.30;30.30;;;;;;10386755;28;20233;-76
2022/04/06 19:03:55;;;;;;;4.40;4.00;;;18.20;29.90;;;;;;10392816;28;20232;-77
2022/04/06 19:08:59;;;;;;;3.47;3.23;;;18.20;30.00;;;;;;10387160;28;20230;-77
2022/04/06 19:14:03;;;;;;;3.30;3.00;;;18.00;29.80;;;;;;10388324;28;20522;-77
2022/04/06 19:19:11;;;;;;;2.80;2.40;;;18.00;29.80;;;;;;10376961;28;20226;-77
2022/04/06 19:24:19;;;;;;;6.10;2.70;;;17.80;29.80;;;;;;10375917;28;20226;-78
2022/04/06 19:29:23;;;;;;;2.63;2.40;;;17.70;29.90;;;;;;10396901;28;20258;-82
2022/04/06 19:34:26;;;;;;;3.27;2.70;;;17.50;30.00;;;;;;10390320;28;20225;-77
2022/04/06 19:39:31;;;;;;;4.13;3.83;;;17.30;30.00;;;;;;10388361;28;20230;-80
2022/04/06 19:44:36;;;;;;;3.43;3.13;;;17.30;30.20;;;;;;10389978;28;20229;-79
2022/04/06 19:49:39;;;;;;;3.57;3.33;;;17.10;30.30;;;;;;10388863;28;20261;-79
2022/04/06 19:54:42;;;;;;;3.77;3.47;;;17.00;30.30;;;;;;10392001;28;20222;-80
2022/04/06 19:59:47;;;;;;;4.27;3.87;;;17.00;30.50;;;;;;10390951;28;20238;-79
2022/04/06 20:04:50;;;;;;;8.10;5.23;;;16.90;30.60;;;;;;10390272;28;20225;-80
2022/04/06 20:09:54;;;;;;;5.90;5.20;;;16.80;30.50;;;;;;10387379;28;20324;-79
2022/04/06 20:14:59;;;;;;;9.17;3.80;;;16.70;30.60;;;;;;10389952;28;20222;-80
2022/04/06 20:20:02;;;;;;;4.30;3.10;;;16.60;30.80;;;;;;10391778;28;20240;-80
2022/04/06 20:25:07;;;;;;;3.20;2.90;;;16.50;30.80;;;;;;10395937;28;20230;-79
2022/04/06 20:30:13;;;;;;;2.83;2.63;;;16.40;30.90;;;;;;10395860;28;20691;-81
2022/04/06 20:35:16;;;;;;;4.97;3.23;;;16.30;31.00;;;;;;10404854;28;20288;-81
2022/04/06 20:40:19;;;;;;;4.33;3.80;;;16.20;30.90;;;;;;10403175;28;20226;-81
2022/04/06 20:45:27;;;;;;;4.47;3.93;;;16.00;31.00;;;;;;10404232;28;20698;-80
2022/04/06 20:50:31;;;;;;;4.53;4.10;;;15.80;31.50;;;;;;10400225;28;20710;-80
2022/04/06 20:55:34;;;;;;;4.17;3.77;;;15.70;31.40;;;;;;10391717;28;20689;-80
2022/04/06 21:00:39;;;;;;;3.90;3.60;;;15.60;31.70;;;;;;10398282;28;20275;-80
2022/04/06 21:05:42;;;;;;;3.80;3.40;;;15.50;32.50;;;;;;10385763;28;20241;-80
2022/04/06 21:10:45;;;;;;;4.33;3.40;;;15.40;32.00;;;;;;10393018;28;20335;-80
2022/04/06 21:15:50;;;;;;;5.27;3.70;;;15.30;32.40;;;;;;10387822;28;20228;-80
2022/04/06 21:21:00;;;;;;;4.73;3.57;;;15.20;32.30;;;;;;10387561;28;20222;-79
2022/04/06 21:26:03;;;;;;;3.43;3.10;;;15.10;32.20;;;;;;10394198;28;20233;-79
2022/04/06 21:31:08;;;;;;;2.60;2.40;;;15.00;32.10;;;;;;10391649;28;20232;-78
2022/04/06 21:36:12;;;;;;;2.37;2.17;;;15.00;32.20;;;;;;10394223;28;20233;-79
2022/04/06 21:41:17;;;;;;;2.57;2.37;;;15.00;32.20;;;;;;10392224;28;20226;-79
2022/04/06 21:46:21;;;;;;;1.70;1.60;;;15.00;32.30;;;;;;10397842;28;20337;-79
2022/04/06 21:51:25;;;;;;;1.90;1.80;;;15.10;32.60;;;;;;10408985;28;20313;-79
2022/04/06 21:56:28;;;;;;;2.00;1.50;;;15.20;32.30;;;;;;10398782;28;20235;-79
2022/04/06 22:01:33;;;;;;;1.53;1.43;;;15.30;32.40;;;;;;10401979;28;20222;-79
2022/04/06 22:06:36;;;;;;;1.53;1.27;;;15.30;32.40;;;;;;10395396;28;20221;-79
2022/04/06 22:11:39;;;;;;;1.50;1.40;;;15.40;32.50;;;;;;10397199;28;20259;-79
2022/04/06 22:16:45;;;;;;;1.50;1.40;;;15.40;32.50;;;;;;10393432;28;20313;-79
2022/04/06 22:21:51;;;;;;;1.30;1.20;;;15.40;32.50;;;;;;10389430;28;20249;-79
2022/04/06 22:26:54;;;;;;;1.27;1.17;;;15.40;32.50;;;;;;10387260;28;20230;-79
2022/04/06 22:31:59;;;;;;;1.30;1.20;;;15.40;32.50;;;;;;10400915;28;20228;-79
2022/04/06 22:37:02;;;;;;;1.03;1.00;;;15.40;32.50;;;;;;10397434;28;20230;-79
2022/04/06 22:42:05;;;;;;;1.10;1.10;;;15.30;32.40;;;;;;10394986;28;20253;-79
2022/04/06 22:47:10;;;;;;;1.37;1.27;;;15.30;32.40;;;;;;10402973;28;20778;-79
2022/04/06 22:52:13;;;;;;;1.00;1.00;;;15.30;32.40;;;;;;10394677;28;20706;-79
2022/04/06 22:57:16;;;;;;;1.30;1.20;;;15.30;32.40;;;;;;10390739;28;20656;-79
2022/04/06 23:02:21;;;;;;;1.40;1.30;;;15.30;32.40;;;;;;10390681;28;20317;-79
2022/04/06 23:07:24;;;;;;;1.40;1.30;;;15.20;32.30;;;;;;10399149;28;20229;-79
2022/04/06 23:12:27;;;;;;;1.17;1.17;;;15.20;32.30;;;;;;10403228;28;20313;-78
2022/04/06 23:17:32;;;;;;;1.27;1.17;;;15.10;32.20;;;;;;10389494;28;20229;-79
2022/04/06 23:22:35;;;;;;;1.40;1.30;;;15.00;32.10;;;;;;10385318;28;20232;-79
2022/04/06 23:27:38;;;;;;;1.60;1.13;;;15.00;32.10;;;;;;10404146;28;20631;-79
2022/04/06 23:32:43;;;;;;;1.27;1.27;;;14.90;32.20;;;;;;10398014;28;20222;-79
2022/04/06 23:37:46;;;;;;;1.40;1.30;;;14.90;32.80;;;;;;10395747;28;20240;-79
2022/04/06 23:42:49;;;;;;;1.10;1.10;;;14.80;32.70;;;;;;10393540;28;20221;-78
2022/04/06 23:47:54;;;;;;;1.20;1.20;;;14.80;33.00;;;;;;10389237;28;20748;-79
2022/04/06 23:52:57;;;;;;;1.30;1.20;;;14.80;33.30;;;;;;10389140;28;20233;-79
2022/04/06 23:58:00;;;;;;;1.43;1.33;;;14.70;33.00;;;;;;10391371;28;20816;-76
